Floreffe, Belgium
Current Conditions -  °F | °C
As of 5:20 PM on Wednesday 22 Oct 2014 (Local Time) from EBCI Reporting Station
Few Clouds Few Clouds  
Wind Chill: 52°   Ceiling: Unl
Heat Index: 52°   Visibility: 6mi
Dew Point: 41°   Wind: 8mph
Humidity: 67%   Direction: 300°WNW
Pressure: 30.18"   Gusts: NA
Location:  50.43°N, 4.76°E
Report Text: EBCI 221520Z 30007KT 260V350 9999 FEW034 11/05 Q1022 NOSIG
Loading
Personal Weather Stations






























Interactive Weather Map New forecast layout! Learn more

10-Day Weather Forecast

Advertisements
Track Severe Weather on mobile